createdAt,value
2022-12-23T00:01:00.748Z,99324.53
2022-12-23T00:03:29.019Z,99317.09
2022-12-23T00:05:57.343Z,99331.56
2022-12-23T00:08:24.914Z,99331.56
2022-12-23T00:10:52.589Z,99317.69
2022-12-23T00:13:19.432Z,99321.41
2022-12-23T00:15:45.876Z,99330.09
2022-12-23T00:18:12.321Z,99326.81
2022-12-23T00:20:38.769Z,99327.84
2022-12-23T00:23:06.820Z,99294.56
2022-12-23T00:25:35.283Z,99320.19
2022-12-23T00:28:02.370Z,99323.94
2022-12-23T00:30:28.876Z,99310.09
2022-12-23T00:32:55.394Z,99338.81
2022-12-23T00:35:21.924Z,99312.38
2022-12-23T00:37:48.438Z,99349.75
2022-12-23T00:40:16.287Z,99337.34
2022-12-23T00:42:42.882Z,99344.38
2022-12-23T00:45:09.654Z,99344.38
2022-12-23T00:47:36.144Z,99327.66
2022-12-23T00:50:02.701Z,99338.94
2022-12-23T00:52:29.278Z,99342.31
2022-12-23T00:54:55.749Z,99338.59
2022-12-23T00:57:23.646Z,99345.41
2022-12-23T00:59:50.231Z,99335.91
2022-12-23T01:02:16.888Z,99354.47
2022-12-23T01:04:43.497Z,99347.88
2022-12-23T01:07:09.980Z,99363.13
2022-12-23T01:09:36.559Z,99363.75
2022-12-23T01:12:03.243Z,99369.78
2022-12-23T01:14:31.439Z,99371.63
2022-12-23T01:16:58.315Z,99376.59
2022-12-23T01:19:25.390Z,99383.41
2022-12-23T01:21:51.902Z,99376.59
2022-12-23T01:24:18.794Z,99370.22
2022-12-23T01:26:45.341Z,99372.66
2022-12-23T01:29:12.095Z,99358.00
2022-12-23T01:31:40.315Z,99374.72
2022-12-23T01:34:06.899Z,99393.31
2022-12-23T01:36:33.387Z,99385.06
2022-12-23T01:38:59.938Z,99385.25
2022-12-23T01:41:28.480Z,99397.84
2022-12-23T01:43:55.043Z,99397.47
2022-12-23T01:46:21.631Z,99419.34
2022-12-23T01:48:52.509Z,99390.59
2022-12-23T01:51:24.006Z,99411.47
2022-12-23T01:53:54.710Z,99406.53
2022-12-23T01:56:24.643Z,99420.16
2022-12-23T01:58:55.252Z,99418.88
2022-12-23T02:01:22.093Z,99418.94
2022-12-23T02:03:53.034Z,99420.19
2022-12-23T02:06:23.798Z,99404.28
2022-12-23T02:08:50.359Z,99398.91
2022-12-23T02:11:43.018Z,99415.38
2022-12-23T02:14:26.155Z,99396.16
2022-12-23T02:16:59.939Z,99403.19
2022-12-23T02:19:53.349Z,99395.16
2022-12-23T02:22:34.220Z,99398.69
2022-12-23T02:25:35.398Z,99411.47
2022-12-23T02:28:23.936Z,99407.56
2022-12-23T02:31:01.494Z,99417.25
2022-12-23T02:33:35.917Z,99425.31
2022-12-23T02:36:20.551Z,99424.91
2022-12-23T02:38:57.115Z,99429.66
2022-12-23T02:41:31.501Z,99441.63
2022-12-23T02:44:03.828Z,99441.47
2022-12-23T02:46:36.117Z,99449.50
2022-12-23T02:49:09.316Z,99435.47
2022-12-23T02:51:41.197Z,99435.47
2022-12-23T02:54:11.170Z,99448.88
2022-12-23T02:56:41.800Z,99452.59
2022-12-23T02:59:12.482Z,99456.53
2022-12-23T03:01:42.928Z,99459.84
2022-12-23T03:04:09.773Z,99464.19
2022-12-23T03:06:40.102Z,99468.88
2022-12-23T03:09:07.440Z,99466.44
2022-12-23T03:11:45.672Z,99494.53
2022-12-23T03:14:33.389Z,99487.50
2022-12-23T03:17:13.614Z,99490.00
2022-12-23T03:19:48.550Z,99499.50
2022-12-23T03:22:23.400Z,99516.22
2022-12-23T03:24:55.630Z,99513.28
2022-12-23T03:27:27.366Z,99498.88
2022-12-23T03:29:57.318Z,99499.69
2022-12-23T03:32:27.608Z,99485.25
2022-12-23T03:34:58.089Z,99506.53
2022-12-23T03:37:27.583Z,99493.72
2022-12-23T03:40:01.574Z,99506.72
2022-12-23T03:42:32.112Z,99512.31
2022-12-23T03:47:53.726Z,99510.88
2022-12-23T03:50:23.413Z,99509.41
2022-12-23T03:52:55.306Z,99507.56
2022-12-23T03:55:27.489Z,99510.66
2022-12-23T03:58:01.396Z,99507.97
2022-12-23T04:00:30.645Z,99477.19
2022-12-23T04:03:09.373Z,99493.72
2022-12-23T04:05:39.377Z,99484.22
2022-12-23T04:08:12.112Z,99478.19
2022-12-23T04:10:38.671Z,99474.91
2022-12-23T04:13:05.628Z,99493.53
2022-12-23T04:15:32.298Z,99495.56
2022-12-23T04:18:00.181Z,99493.91
2022-12-23T04:20:26.790Z,99470.13
2022-12-23T04:22:53.327Z,99475.72
2022-12-23T04:25:19.934Z,99487.31
2022-12-23T04:27:46.537Z,99477.56
2022-12-23T04:30:13.478Z,99485.00
2022-12-23T04:32:40.463Z,99485.00
2022-12-23T04:35:09.277Z,99502.56
2022-12-23T04:37:35.951Z,99491.78
2022-12-23T04:40:02.604Z,99480.66
2022-12-23T04:42:29.160Z,99515.19
2022-12-23T04:44:55.708Z,99518.09
2022-12-23T04:47:22.456Z,99509.41
2022-12-23T04:49:49.037Z,99513.94
2022-12-23T04:52:16.973Z,99496.59
2022-12-23T04:54:46.505Z,99518.09
2022-12-23T04:57:13.248Z,99497.38
2022-12-23T04:59:39.792Z,99493.03
2022-12-23T05:02:07.940Z,99505.75
2022-12-23T05:04:34.968Z,99505.53
2022-12-23T05:07:01.614Z,99530.31
2022-12-23T05:09:29.581Z,99522.47
2022-12-23T05:11:59.282Z,99531.84
2022-12-23T05:14:26.161Z,99513.69
2022-12-23T05:16:52.796Z,99506.53
2022-12-23T05:19:19.444Z,99520.81
2022-12-23T05:21:46.197Z,99507.53
2022-12-23T05:24:12.766Z,99515.38
2022-12-23T05:26:42.816Z,99508.13
2022-12-23T05:29:11.539Z,99511.63
2022-12-23T05:31:38.342Z,99528.34
2022-12-23T05:34:06.768Z,99524.72
2022-12-23T05:36:33.676Z,99505.50
2022-12-23T05:39:00.317Z,99514.09
2022-12-23T05:41:26.985Z,99511.59
2022-12-23T05:43:54.890Z,99540.16
2022-12-23T05:46:26.397Z,99539.97
2022-12-23T05:48:53.497Z,99534.78
2022-12-23T05:51:20.131Z,99540.00
2022-12-23T05:53:46.748Z,99550.72
2022-12-23T05:56:13.341Z,99567.72
2022-12-23T05:58:39.943Z,99566.03
2022-12-23T06:01:08.814Z,99546.63
2022-12-23T06:03:35.646Z,99546.84
2022-12-23T06:06:02.233Z,99572.00
2022-12-23T06:08:28.744Z,99579.63
2022-12-23T06:10:55.384Z,99570.38
2022-12-23T06:13:21.978Z,99563.13
2022-12-23T06:15:48.512Z,99558.19
2022-12-23T06:18:16.529Z,99551.16
2022-12-23T06:20:45.374Z,99560.28
2022-12-23T06:23:11.957Z,99558.59
2022-12-23T06:25:38.452Z,99554.50
2022-12-23T06:28:05.239Z,99539.19
2022-12-23T06:30:31.761Z,99548.91
2022-12-23T06:32:58.271Z,99548.63
2022-12-23T06:35:26.264Z,99546.63
2022-12-23T06:37:53.188Z,99542.69
2022-12-23T06:40:19.820Z,99546.63
2022-12-23T06:42:46.385Z,99530.88
2022-12-23T06:45:13.080Z,99542.44
2022-12-23T06:47:39.587Z,99547.50
2022-12-23T06:50:07.147Z,99555.25
2022-12-23T06:52:35.039Z,99545.50
2022-12-23T06:55:04.048Z,99542.81
2022-12-23T06:57:30.530Z,99536.59
2022-12-23T06:59:57.055Z,99520.06
2022-12-23T07:02:23.794Z,99529.59
2022-12-23T07:04:50.454Z,99535.19
2022-12-23T07:07:17.128Z,99532.06
2022-12-23T07:09:44.976Z,99550.84
2022-12-23T07:12:11.691Z,99582.47
2022-12-23T07:14:38.327Z,99586.97
2022-12-23T07:17:05.115Z,99573.72
2022-12-23T07:19:31.771Z,99570.34
2022-12-23T07:21:58.521Z,99590.00
2022-12-23T07:24:25.237Z,99576.53
2022-12-23T07:26:53.166Z,99600.13
2022-12-23T07:29:19.669Z,99605.03
2022-12-23T07:31:46.310Z,99578.81
2022-12-23T07:34:12.857Z,99577.25
2022-12-23T07:36:39.446Z,99593.59
2022-12-23T07:39:06.228Z,99608.34
2022-12-23T07:41:32.916Z,99588.63
2022-12-23T07:44:09.676Z,99609.78
2022-12-23T07:46:36.596Z,99597.31
2022-12-23T07:49:03.299Z,99608.94
2022-12-23T07:51:29.969Z,99617.81
2022-12-23T07:53:56.698Z,99602.97
2022-12-23T07:56:23.694Z,99610.75
2022-12-23T07:58:51.400Z,99607.69
2022-12-23T08:01:20.400Z,99603.75
2022-12-23T08:03:47.829Z,99603.97
2022-12-23T08:06:15.544Z,99607.63
2022-12-23T08:08:44.611Z,99602.69
2022-12-23T08:11:11.599Z,99601.44
2022-12-23T08:13:41.596Z,99590.53
2022-12-23T08:16:08.991Z,99598.78
2022-12-23T08:18:38.905Z,99601.84
2022-12-23T08:21:08.128Z,99593.66
2022-12-23T08:23:34.936Z,99594.47
2022-12-23T08:26:02.830Z,99596.56
2022-12-23T08:28:29.712Z,99593.50
2022-12-23T08:31:03.380Z,99577.97
2022-12-23T08:33:29.932Z,99565.38
2022-12-23T08:35:58.070Z,99591.63
2022-12-23T08:38:24.643Z,99572.97
2022-12-23T08:40:51.202Z,99590.53
2022-12-23T08:43:17.765Z,99573.19
2022-12-23T08:45:44.958Z,99574.28
2022-12-23T08:48:12.480Z,99580.63
2022-12-23T08:50:39.752Z,99582.94
2022-12-23T08:53:08.010Z,99580.88
2022-12-23T08:55:38.239Z,99588.69
2022-12-23T08:58:05.056Z,99563.69
2022-12-23T09:00:31.625Z,99601.13
2022-12-23T09:02:58.338Z,99604.00
2022-12-23T09:05:24.947Z,99588.03
2022-12-23T09:07:51.429Z,99595.50
2022-12-23T09:10:19.428Z,99597.78
2022-12-23T09:12:46.153Z,99578.84
2022-12-23T09:15:12.865Z,99603.19
2022-12-23T09:17:39.450Z,99588.75
2022-12-23T09:20:07.326Z,99588.31
2022-12-23T09:22:34.398Z,99593.22
2022-12-23T09:25:05.081Z,99582.88
2022-12-23T09:27:33.485Z,99579.63
2022-12-23T09:30:00.005Z,99574.41
2022-12-23T09:32:26.544Z,99567.25
2022-12-23T09:34:53.084Z,99562.75
2022-12-23T09:37:19.622Z,99560.88
2022-12-23T09:39:46.212Z,99560.91
2022-12-23T09:42:28.192Z,99558.22
2022-12-23T09:45:09.716Z,99553.25
2022-12-23T09:47:37.933Z,99544.53
2022-12-23T09:50:18.578Z,99522.19
2022-12-23T09:52:52.625Z,99537.13
2022-12-23T09:55:21.377Z,99546.84
2022-12-23T09:57:55.504Z,99547.44
2022-12-23T10:00:24.057Z,99525.75
2022-12-23T10:03:07.823Z,99536.50
2022-12-23T10:05:45.884Z,99525.97
2022-12-23T10:08:17.004Z,99521.22
2022-12-23T10:10:46.833Z,99508.63
2022-12-23T10:13:23.817Z,99508.38
2022-12-23T10:15:53.410Z,99488.97
2022-12-23T10:18:25.644Z,99494.34
2022-12-23T10:20:57.977Z,99486.88
2022-12-23T10:23:28.619Z,99480.91
2022-12-23T10:25:55.345Z,99495.78
2022-12-23T10:28:22.831Z,99484.84
2022-12-23T10:31:31.052Z,99459.22
2022-12-23T10:33:59.683Z,99455.28
2022-12-23T10:36:40.197Z,99458.38
2022-12-23T10:39:18.796Z,99462.28
2022-12-23T10:41:55.185Z,99452.38
2022-12-23T10:44:50.225Z,99448.69
2022-12-23T10:47:28.957Z,99459.81
2022-12-23T10:50:11.119Z,99450.75
2022-12-23T10:52:42.146Z,99448.69
2022-12-23T10:55:19.907Z,99449.72
2022-12-23T10:57:46.609Z,99443.50
2022-12-23T11:00:16.928Z,99439.78
2022-12-23T11:03:07.316Z,99423.91
2022-12-23T11:05:34.433Z,99423.63
2022-12-23T11:08:02.088Z,99417.25
2022-12-23T11:10:32.170Z,99416.59
2022-12-23T11:12:59.320Z,99419.47
2022-12-23T11:15:32.039Z,99420.75
2022-12-23T11:18:05.992Z,99414.72
2022-12-23T11:20:33.460Z,99407.06
2022-12-23T11:23:01.920Z,99385.41
2022-12-23T11:25:38.773Z,99393.25
2022-12-23T11:28:13.049Z,99388.47
2022-12-23T11:30:55.552Z,99379.41
2022-12-23T11:33:27.129Z,99372.78
2022-12-23T11:36:06.204Z,99355.69
2022-12-23T11:38:33.767Z,99348.03
2022-12-23T11:41:00.709Z,99332.16
2022-12-23T11:43:28.084Z,99326.81
2022-12-23T11:46:16.715Z,99334.06
2022-12-23T11:48:50.071Z,99331.41
2022-12-23T11:51:25.867Z,99294.44
2022-12-23T11:53:59.628Z,99305.59
2022-12-23T11:56:26.935Z,99276.06
2022-12-23T11:58:58.148Z,99277.47
2022-12-23T12:01:25.343Z,99279.31
2022-12-23T12:03:55.741Z,99272.13
2022-12-23T12:06:22.883Z,99278.94
2022-12-23T12:08:51.896Z,99259.97
2022-12-23T12:11:24.591Z,99252.31
2022-12-23T12:14:00.043Z,99252.31
2022-12-23T12:16:47.856Z,99255.00
2022-12-23T12:19:22.717Z,99225.50
2022-12-23T12:21:51.077Z,99234.56
2022-12-23T12:24:22.571Z,99239.72
2022-12-23T12:26:53.966Z,99223.00
2022-12-23T12:29:26.701Z,99194.72
2022-12-23T12:31:55.200Z,99208.16
2022-12-23T12:34:36.564Z,99210.44
2022-12-23T12:37:10.266Z,99190.22
2022-12-23T12:39:42.261Z,99184.03
2022-12-23T12:42:14.276Z,99189.38
2022-12-23T12:44:52.087Z,99178.06
2022-12-23T12:50:17.785Z,99142.78
2022-12-23T12:52:44.604Z,99146.09
2022-12-23T12:55:20.778Z,99132.47
2022-12-23T12:57:47.293Z,99125.47
2022-12-23T13:00:15.951Z,99140.13
2022-12-23T13:03:12.294Z,99146.31
2022-12-23T13:05:55.531Z,99165.22
2022-12-23T13:08:37.643Z,99175.97
2022-12-23T13:11:10.293Z,99176.38
2022-12-23T13:13:45.626Z,99179.91
2022-12-23T13:16:23.407Z,99166.91
2022-12-23T13:18:58.188Z,99109.00
2022-12-23T13:21:32.558Z,99099.41
2022-12-23T13:24:09.661Z,99105.19
2022-12-23T13:26:39.182Z,99105.44
2022-12-23T13:29:39.721Z,99115.75
2022-12-23T13:32:19.632Z,99078.91
2022-12-23T13:34:55.112Z,99073.94
2022-12-23T13:37:31.799Z,99060.72
2022-12-23T13:40:09.499Z,99058.91
2022-12-23T13:42:40.058Z,99050.63
2022-12-23T13:45:13.881Z,99042.00
2022-12-23T13:47:50.295Z,99041.38
2022-12-23T13:50:23.161Z,99036.03
2022-12-23T13:53:09.496Z,99006.56
2022-12-23T13:55:52.350Z,99033.53
2022-12-23T13:58:21.171Z,99005.75
2022-12-23T14:00:57.537Z,99005.94
2022-12-23T14:03:25.945Z,98984.47
2022-12-23T14:05:53.352Z,98992.34
2022-12-23T14:14:19.280Z,99005.09
2022-12-23T14:16:58.492Z,98999.56
2022-12-23T14:19:44.113Z,98986.78
2022-12-23T14:22:28.050Z,98988.59
2022-12-23T14:25:31.291Z,98984.88
2022-12-23T14:28:07.362Z,98980.78
2022-12-23T14:30:40.154Z,98974.97
2022-12-23T14:33:16.060Z,98983.25
2022-12-23T14:35:56.033Z,98983.22
2022-12-23T14:38:28.221Z,98977.88
2022-12-23T14:40:59.533Z,98980.06
2022-12-23T14:43:56.781Z,98981.66
2022-12-23T14:46:58.516Z,98982.31
2022-12-23T14:49:41.444Z,98987.81
2022-12-23T14:52:44.497Z,98980.56
2022-12-23T14:55:53.129Z,98977.84
2022-12-23T14:58:58.103Z,98974.94
2022-12-23T15:01:31.329Z,98967.66
2022-12-23T15:04:05.434Z,98975.84
2022-12-23T15:06:36.470Z,98971.56
2022-12-23T15:09:04.696Z,98967.72
2022-12-23T15:11:34.537Z,98964.41
2022-12-23T15:14:04.109Z,98968.75
2022-12-23T15:16:33.773Z,98968.28
2022-12-23T15:19:12.154Z,98980.69
2022-12-23T15:21:38.579Z,98982.50
2022-12-23T15:24:05.785Z,98981.97
2022-12-23T15:26:32.801Z,98988.25
2022-12-23T15:29:00.399Z,98981.94
2022-12-23T15:31:35.611Z,98986.94
2022-12-23T15:34:16.650Z,98996.97
2022-12-23T15:36:45.456Z,98991.50
2022-12-23T15:39:19.011Z,98994.09
2022-12-23T15:41:47.628Z,99003.59
2022-12-23T15:44:19.584Z,99001.09
2022-12-23T15:46:46.310Z,98996.78
2022-12-23T15:49:14.528Z,98994.78
2022-12-23T15:52:06.404Z,98996.47
2022-12-23T15:54:33.729Z,99003.03
2022-12-23T15:57:02.176Z,98995.03
2022-12-23T15:59:33.942Z,98999.91
2022-12-23T16:02:24.956Z,99006.28
2022-12-23T16:04:58.841Z,99004.34
2022-12-23T16:07:31.017Z,99011.84
2022-12-23T16:10:01.360Z,99009.16
2022-12-23T16:12:27.808Z,99018.69
2022-12-23T16:14:57.529Z,99012.53
2022-12-23T16:17:30.319Z,99025.69
2022-12-23T16:20:19.437Z,99038.25
2022-12-23T16:22:46.278Z,99031.19
2022-12-23T16:25:18.296Z,99024.25
2022-12-23T16:27:48.061Z,99037.69
2022-12-23T16:30:17.515Z,99040.69
2022-12-23T16:32:50.720Z,99048.25
2022-12-23T16:35:28.629Z,99063.06
2022-12-23T16:37:59.118Z,99057.84
2022-12-23T16:40:25.887Z,99070.53
2022-12-23T16:42:52.343Z,99076.44
2022-12-23T16:45:19.463Z,99083.84
2022-12-23T16:47:45.979Z,99088.47
2022-12-23T16:50:14.580Z,99087.66
2022-12-23T16:52:42.410Z,99097.00
2022-12-23T16:55:14.686Z,99107.22
2022-12-23T16:57:41.149Z,99112.69
2022-12-23T17:00:13.940Z,99106.25
2022-12-23T17:02:40.481Z,99115.22
2022-12-23T17:05:07.831Z,99125.44
2022-12-23T17:07:35.850Z,99120.81
2022-12-23T17:10:09.669Z,99124.28
2022-12-23T17:12:36.289Z,99137.53
2022-12-23T17:15:05.414Z,99137.47
2022-12-23T17:17:31.852Z,99143.91
2022-12-23T17:19:58.287Z,99144.50
2022-12-23T17:22:25.407Z,99159.91
2022-12-23T17:24:51.910Z,99151.56
2022-12-23T17:27:20.235Z,99157.56
2022-12-23T17:29:46.915Z,99147.44
2022-12-23T17:32:16.219Z,99156.88
2022-12-23T17:34:42.729Z,99142.72
2022-12-23T17:37:13.678Z,99164.03
2022-12-23T17:39:41.537Z,99166.81
2022-12-23T17:42:13.507Z,99158.41
2022-12-23T17:44:41.466Z,99167.72
2022-12-23T17:47:13.024Z,99174.66
2022-12-23T17:49:39.524Z,99174.78
2022-12-23T17:52:06.028Z,99175.56
2022-12-23T17:54:32.481Z,99171.69
2022-12-23T17:56:58.973Z,99170.03
2022-12-23T17:59:25.469Z,99177.81
2022-12-23T18:01:53.463Z,99182.22
2022-12-23T18:04:20.110Z,99190.69
2022-12-23T18:06:46.555Z,99191.84
2022-12-23T18:09:13.059Z,99203.09
2022-12-23T18:11:42.116Z,99209.44
2022-12-23T18:14:12.934Z,99209.59
2022-12-23T18:16:39.574Z,99221.63
2022-12-23T18:19:14.659Z,99204.22
2022-12-23T18:21:41.106Z,99195.56
2022-12-23T18:24:10.602Z,99197.31
2022-12-23T18:26:37.295Z,99204.53
2022-12-23T18:29:03.881Z,99216.50
2022-12-23T18:31:30.785Z,99214.72
2022-12-23T18:33:57.294Z,99222.28
2022-12-23T18:36:27.430Z,99224.88
2022-12-23T18:38:54.749Z,99223.16
2022-12-23T18:41:22.077Z,99229.31
2022-12-23T18:43:49.402Z,99240.09
2022-12-23T18:46:16.218Z,99234.81
2022-12-23T18:48:43.144Z,99242.50
2022-12-23T18:51:13.452Z,99244.78
2022-12-23T18:53:41.268Z,99255.19
2022-12-23T18:56:11.937Z,99259.50
2022-12-23T18:58:38.412Z,99255.19
2022-12-23T19:01:05.078Z,99253.28
2022-12-23T19:03:32.118Z,99250.22
2022-12-23T19:05:59.210Z,99254.47
2022-12-23T19:08:27.633Z,99250.56
2022-12-23T19:10:55.871Z,99257.78
2022-12-23T19:13:22.430Z,99257.53
2022-12-23T19:15:49.243Z,99250.91
2022-12-23T19:18:17.650Z,99252.69
2022-12-23T19:20:45.394Z,99258.31
2022-12-23T19:23:12.296Z,99268.72
2022-12-23T19:25:40.429Z,99260.50
2022-12-23T19:28:08.351Z,99265.59
2022-12-23T19:30:35.260Z,99265.59
2022-12-23T19:33:01.741Z,99275.13
2022-12-23T19:35:28.211Z,99271.50
2022-12-23T19:37:54.657Z,99281.72
2022-12-23T19:40:21.479Z,99272.16
2022-12-23T19:42:47.993Z,99280.09
2022-12-23T19:45:18.465Z,99297.72
2022-12-23T19:47:44.946Z,99308.09
2022-12-23T19:50:11.902Z,99314.28
2022-12-23T19:52:38.483Z,99334.75
2022-12-23T19:55:05.996Z,99346.72
2022-12-23T19:57:32.542Z,99333.72
2022-12-23T19:59:58.994Z,99345.94
2022-12-23T20:02:26.925Z,99346.06
2022-12-23T20:04:53.434Z,99354.72
2022-12-23T20:07:19.885Z,99348.72
2022-12-23T20:09:46.343Z,99357.88
2022-12-23T20:12:12.843Z,99354.38
2022-12-23T20:14:39.347Z,99363.28
2022-12-23T20:17:06.033Z,99370.91
2022-12-23T20:19:33.923Z,99372.69
2022-12-23T20:22:00.470Z,99374.00
2022-12-23T20:24:27.041Z,99369.63
2022-12-23T20:26:53.487Z,99381.00
2022-12-23T20:29:19.966Z,99387.22
2022-12-23T20:31:46.460Z,99379.97
2022-12-23T20:34:15.342Z,99364.97
2022-12-23T20:36:43.741Z,99394.72
2022-12-23T20:39:10.326Z,99403.41
2022-12-23T20:41:36.793Z,99402.53
2022-12-23T20:46:50.872Z,99406.81
2022-12-23T20:49:17.456Z,99421.75
2022-12-23T20:51:45.324Z,99405.63
2022-12-23T20:54:11.758Z,99425.72
2022-12-23T20:56:38.208Z,99431.03
2022-12-23T20:59:04.676Z,99422.00
2022-12-23T21:01:32.968Z,99437.91
2022-12-23T21:04:01.660Z,99431.91
2022-12-23T21:06:29.584Z,99444.91
2022-12-23T21:08:58.251Z,99453.16
2022-12-23T21:11:26.710Z,99467.03
2022-12-23T21:13:53.178Z,99454.16
2022-12-23T21:16:19.731Z,99462.41
2022-12-23T21:18:48.003Z,99475.09
2022-12-23T21:21:14.583Z,99467.59
2022-12-23T21:23:42.060Z,99475.13
2022-12-23T21:26:12.456Z,99466.41
2022-12-23T21:28:40.279Z,99472.81
2022-12-23T21:31:07.377Z,99483.56
2022-12-23T21:33:35.495Z,99487.06
2022-12-23T21:36:02.205Z,99491.84
2022-12-23T21:38:31.277Z,99505.72
2022-12-23T21:40:58.995Z,99507.97
2022-12-23T21:43:28.294Z,99505.25
2022-12-23T21:45:59.312Z,99510.66
2022-12-23T21:48:26.005Z,99519.53
2022-12-23T21:50:52.922Z,99523.28
2022-12-23T21:53:19.435Z,99524.13
2022-12-23T21:55:46.083Z,99514.81
2022-12-23T21:58:12.537Z,99519.97
2022-12-23T22:00:40.355Z,99524.94
2022-12-23T22:03:06.792Z,99520.16
2022-12-23T22:05:33.222Z,99528.00
2022-12-23T22:07:59.663Z,99526.59
2022-12-23T22:10:26.105Z,99525.97
2022-12-23T22:12:52.574Z,99530.50
2022-12-23T22:15:19.008Z,99531.53
2022-12-23T22:17:46.829Z,99528.03
2022-12-23T22:20:13.350Z,99545.41
2022-12-23T22:22:39.801Z,99551.16
2022-12-23T22:25:06.645Z,99562.97
2022-12-23T22:27:33.084Z,99568.16
2022-12-23T22:29:59.500Z,99568.34
2022-12-23T22:32:25.928Z,99565.88
2022-12-23T22:34:53.728Z,99572.25
2022-12-23T22:37:20.143Z,99570.38
2022-12-23T22:39:46.571Z,99586.13
2022-12-23T22:42:13.048Z,99596.88
2022-12-23T22:44:39.480Z,99598.22
2022-12-23T22:47:05.963Z,99616.47
2022-12-23T22:49:32.613Z,99615.41
2022-12-23T22:52:00.465Z,99607.97
2022-12-23T22:54:26.965Z,99614.00
2022-12-23T22:56:53.378Z,99618.56
2022-12-23T22:59:21.760Z,99616.91
2022-12-23T23:01:48.880Z,99619.34
2022-12-23T23:04:15.444Z,99620.56
2022-12-23T23:06:42.109Z,99618.91
2022-12-23T23:09:13.482Z,99637.50
2022-12-23T23:11:40.897Z,99629.84
2022-12-23T23:14:07.399Z,99619.34
2022-12-23T23:16:33.870Z,99628.78
2022-12-23T23:19:00.858Z,99627.78
2022-12-23T23:21:27.324Z,99638.22
2022-12-23T23:23:53.865Z,99625.69
2022-12-23T23:26:22.260Z,99635.75
2022-12-23T23:28:48.732Z,99628.56
2022-12-23T23:31:45.306Z,99635.75
2022-12-23T23:34:01.713Z,99632.34
2022-12-23T23:36:28.159Z,99639.34
2022-12-23T23:38:54.673Z,99621.31
2022-12-23T23:41:23.988Z,99621.44
2022-12-23T23:43:50.776Z,99632.78
2022-12-23T23:46:17.291Z,99637.94
2022-12-23T23:48:43.809Z,99633.53
2022-12-23T23:51:10.363Z,99649.97
2022-12-23T23:53:36.815Z,99651.16
2022-12-23T23:56:06.802Z,99656.50
2022-12-23T23:58:35.707Z,99663.53
